Gilbert, Louisiana
Current Conditions -  °F | °C
As of 4:15 PM on Saturday 20 Dec 2014 (Local Time) from KHEZ Reporting Station
Clear Clear  
Wind Chill: 13°   Ceiling: Unl
Heat Index: 13°   Visibility: 10mi
Dew Point:   Wind: 7mph
Humidity: 63%   Direction: 340°NNW
Pressure: 30.15"   Gusts: NA
Location:  32.05°N, 91.66°W
Report Text: KHEZ 202215Z AUTO 34006KT 10SM CLR 13/06 A3015 RMK AO1
Loading
Personal Weather Stations






























Interactive Weather Map New forecast layout! Learn more

10-Day Weather Forecast

Advertisements
Track Severe Weather on mobile